createdAt,value
2023-10-09T00:01:10.903Z,3.33
2023-10-09T00:03:39.168Z,3.40
2023-10-09T00:06:06.440Z,3.20
2023-10-09T00:08:33.246Z,2.78
2023-10-09T00:11:20.825Z,2.70
2023-10-09T00:13:52.955Z,3.17
2023-10-09T00:16:33.980Z,2.80
2023-10-09T00:19:14.900Z,2.83
2023-10-09T00:21:48.802Z,2.65
2023-10-09T00:24:22.984Z,2.50
2023-10-09T00:26:50.176Z,2.92
2023-10-09T00:29:23.290Z,2.47
2023-10-09T00:32:17.375Z,2.78
2023-10-09T00:34:44.068Z,2.80
2023-10-09T00:37:27.577Z,2.40
2023-10-09T00:39:57.993Z,2.35
2023-10-09T00:42:30.380Z,2.20
2023-10-09T00:44:57.844Z,2.55
2023-10-09T00:53:10.021Z,2.55
2023-10-09T00:55:45.163Z,2.60
2023-10-09T00:58:24.650Z,2.75
2023-10-09T01:00:53.473Z,2.55
2023-10-09T01:03:22.139Z,3.20
2023-10-09T01:06:09.792Z,2.80
2023-10-09T01:08:36.542Z,2.70
2023-10-09T01:11:15.730Z,2.67
2023-10-09T01:13:54.037Z,2.60
2023-10-09T01:16:24.213Z,2.40
2023-10-09T01:18:59.043Z,2.65
2023-10-09T01:21:27.758Z,3.13
2023-10-09T01:24:05.863Z,2.70
2023-10-09T01:26:50.732Z,2.40
2023-10-09T01:29:23.086Z,3.05
2023-10-09T01:31:57.928Z,3.08
2023-10-09T01:34:45.795Z,2.90
2023-10-09T01:37:34.644Z,2.90
2023-10-09T01:40:21.002Z,2.85
2023-10-09T01:42:48.082Z,2.78
2023-10-09T01:45:38.109Z,2.80
2023-10-09T01:48:06.505Z,2.72
2023-10-09T01:50:36.566Z,2.75
2023-10-09T01:53:03.866Z,2.80
2023-10-09T01:55:36.725Z,2.88
2023-10-09T01:58:25.303Z,3.00
2023-10-09T02:00:58.515Z,2.60
2023-10-09T02:03:25.940Z,2.70
2023-10-09T02:05:54.722Z,3.10
2023-10-09T02:08:27.908Z,2.88
2023-10-09T02:10:57.343Z,3.17
2023-10-09T02:13:36.254Z,3.10
2023-10-09T02:16:15.834Z,2.75
2023-10-09T02:18:55.112Z,2.88
2023-10-09T02:21:34.995Z,2.78
2023-10-09T02:24:10.777Z,3.17
2023-10-09T02:26:39.937Z,3.35
2023-10-09T02:29:16.408Z,3.25
2023-10-09T02:31:47.238Z,2.97
2023-10-09T02:34:14.236Z,3.00
2023-10-09T02:37:04.064Z,3.53
2023-10-09T02:39:37.754Z,3.30
2023-10-09T02:42:13.579Z,3.47
2023-10-09T02:44:47.639Z,3.20
2023-10-09T02:47:21.687Z,3.30
2023-10-09T02:49:51.779Z,3.25
2023-10-09T02:52:26.311Z,3.70
2023-10-09T02:55:00.789Z,3.40
2023-10-09T02:57:37.362Z,3.53
2023-10-09T03:00:19.549Z,3.60
2023-10-09T03:02:50.009Z,3.45
2023-10-09T03:05:17.415Z,3.20
2023-10-09T03:07:45.488Z,3.20
2023-10-09T03:10:12.026Z,4.07
2023-10-09T03:12:40.403Z,3.47
2023-10-09T03:15:09.910Z,3.78
2023-10-09T03:17:36.723Z,3.60
2023-10-09T03:20:13.844Z,4.03
2023-10-09T03:25:15.182Z,4.47
2023-10-09T03:27:48.570Z,4.65
2023-10-09T03:30:18.274Z,4.70
2023-10-09T03:32:48.149Z,4.18
2023-10-09T03:35:18.342Z,4.35
2023-10-09T03:37:44.783Z,4.47
2023-10-09T03:40:18.514Z,4.90
2023-10-09T03:42:45.930Z,5.40
2023-10-09T03:45:27.984Z,5.13
2023-10-09T03:48:17.013Z,6.15
2023-10-09T03:50:44.592Z,6.60
2023-10-09T03:53:13.698Z,6.30
2023-10-09T03:55:40.831Z,6.25
2023-10-09T03:58:08.435Z,5.97
2023-10-09T04:00:46.179Z,5.97
2023-10-09T04:03:15.361Z,6.85
2023-10-09T04:05:44.427Z,5.68
2023-10-09T04:08:30.127Z,7.07
2023-10-09T04:11:04.962Z,6.43
2023-10-09T04:13:35.381Z,6.85
2023-10-09T04:16:12.140Z,6.63
2023-10-09T04:18:39.996Z,6.32
2023-10-09T04:21:19.827Z,6.93
2023-10-09T04:24:05.983Z,6.82
2023-10-09T04:26:35.918Z,6.13
2023-10-09T04:29:03.417Z,6.63
2023-10-09T04:34:24.988Z,6.97
2023-10-09T04:37:01.640Z,7.30
2023-10-09T04:39:31.627Z,6.93
2023-10-09T04:42:18.957Z,7.30
2023-10-09T04:45:04.737Z,7.22
2023-10-09T04:47:59.272Z,7.28
2023-10-09T04:50:46.491Z,8.13
2023-10-09T04:53:15.987Z,8.27
2023-10-09T04:55:45.414Z,8.82
2023-10-09T04:58:24.888Z,9.02
2023-10-09T05:01:00.615Z,9.75
2023-10-09T05:03:59.482Z,9.52
2023-10-09T05:06:45.282Z,9.27
2023-10-09T05:09:15.032Z,10.05
2023-10-09T05:12:07.987Z,9.82
2023-10-09T05:14:40.414Z,10.90
2023-10-09T05:17:07.861Z,11.23
2023-10-09T05:22:30.023Z,10.23
2023-10-09T05:24:59.937Z,11.57
2023-10-09T05:27:44.768Z,11.45
2023-10-09T05:30:25.954Z,11.55
2023-10-09T05:32:59.352Z,12.55
2023-10-09T05:35:41.966Z,12.32
2023-10-09T05:38:24.201Z,12.07
2023-10-09T05:41:05.786Z,11.18
2023-10-09T05:43:50.801Z,11.48
2023-10-09T05:46:17.460Z,11.48
2023-10-09T05:48:43.945Z,11.07
2023-10-09T05:51:10.415Z,11.45
2023-10-09T05:53:45.916Z,11.88
2023-10-09T05:56:31.599Z,12.02
2023-10-09T05:59:07.539Z,10.90
2023-10-09T06:01:52.225Z,11.38
2023-10-09T06:04:20.257Z,11.77
2023-10-09T06:06:47.452Z,11.15
2023-10-09T06:09:15.376Z,10.98
2023-10-09T06:11:50.289Z,10.63
2023-10-09T06:14:26.308Z,11.00
2023-10-09T06:17:12.614Z,11.07
2023-10-09T06:19:44.854Z,11.57
2023-10-09T06:22:30.555Z,10.80
2023-10-09T06:24:58.731Z,11.13
2023-10-09T06:27:44.494Z,11.48
2023-10-09T06:30:34.545Z,10.82
2023-10-09T06:33:21.427Z,11.10
2023-10-09T06:38:24.945Z,11.23
2023-10-09T06:41:07.345Z,11.15
2023-10-09T06:43:38.420Z,11.27
2023-10-09T06:46:23.284Z,11.20
2023-10-09T06:48:58.618Z,11.55
2023-10-09T06:51:28.245Z,11.52
2023-10-09T06:53:56.066Z,11.45
2023-10-09T06:56:32.859Z,10.90
2023-10-09T06:59:16.464Z,12.65
2023-10-09T07:01:48.302Z,12.38
2023-10-09T07:04:41.052Z,11.45
2023-10-09T07:07:14.052Z,14.15
2023-10-09T07:09:43.699Z,14.10
2023-10-09T07:12:27.264Z,14.05
2023-10-09T07:15:16.487Z,13.00
2023-10-09T07:17:46.851Z,13.18
2023-10-09T07:20:36.655Z,13.27
2023-10-09T07:23:16.097Z,13.15
2023-10-09T07:25:55.924Z,12.55
2023-10-09T07:28:43.602Z,12.70
2023-10-09T07:31:25.479Z,12.27
2023-10-09T07:33:57.910Z,13.32
2023-10-09T07:36:35.813Z,12.77
2023-10-09T07:39:14.209Z,12.88
2023-10-09T07:41:46.511Z,13.55
2023-10-09T07:44:37.611Z,12.82
2023-10-09T07:47:23.351Z,12.80
2023-10-09T07:49:55.028Z,12.88
2023-10-09T07:52:23.009Z,13.18
2023-10-09T07:55:03.840Z,12.18
2023-10-09T07:57:39.516Z,12.55
2023-10-09T08:00:14.101Z,12.55
2023-10-09T08:02:40.737Z,12.20
2023-10-09T08:05:14.532Z,11.53
2023-10-09T08:08:04.920Z,12.68
2023-10-09T08:10:34.518Z,12.35
2023-10-09T08:13:22.687Z,11.75
2023-10-09T08:15:54.949Z,12.13
2023-10-09T08:18:33.207Z,13.10
2023-10-09T08:20:59.666Z,13.43
2023-10-09T08:23:34.643Z,13.70
2023-10-09T08:26:15.612Z,13.48
2023-10-09T08:28:46.658Z,13.02
2023-10-09T08:31:20.636Z,12.90
2023-10-09T08:36:33.134Z,13.55
2023-10-09T08:39:00.173Z,12.60
2023-10-09T08:41:31.132Z,14.45
2023-10-09T08:43:58.839Z,13.18
2023-10-09T08:46:30.383Z,13.00
2023-10-09T08:48:59.486Z,11.52
2023-10-09T08:51:27.744Z,11.10
2023-10-09T08:53:56.640Z,10.90
2023-10-09T08:56:23.788Z,10.13
2023-10-09T08:58:58.379Z,10.18
2023-10-09T09:01:26.587Z,10.13
2023-10-09T09:03:56.837Z,9.60
2023-10-09T09:06:24.314Z,9.10
2023-10-09T09:08:56.338Z,9.40
2023-10-09T09:11:26.215Z,7.72
2023-10-09T09:14:06.609Z,8.05
2023-10-09T09:16:36.467Z,8.25
2023-10-09T09:19:10.506Z,7.15
2023-10-09T09:21:41.008Z,7.38
2023-10-09T09:24:28.040Z,7.50
2023-10-09T09:27:00.332Z,6.57
2023-10-09T09:29:37.719Z,6.53
2023-10-09T09:32:18.005Z,6.60
2023-10-09T09:34:50.749Z,6.35
2023-10-09T09:37:21.796Z,5.65
2023-10-09T09:39:55.801Z,6.55
2023-10-09T09:42:28.040Z,6.82
2023-10-09T09:44:56.852Z,7.95
2023-10-09T09:47:28.364Z,8.73
2023-10-09T09:50:01.079Z,8.40
2023-10-09T09:52:30.759Z,9.27
2023-10-09T09:54:57.372Z,8.68
2023-10-09T09:57:28.066Z,10.17
2023-10-09T09:59:57.855Z,9.50
2023-10-09T10:02:30.183Z,9.38
2023-10-09T10:05:00.276Z,9.75
2023-10-09T10:07:30.267Z,10.20
2023-10-09T10:09:58.892Z,10.55
2023-10-09T10:13:01.338Z,9.90
2023-10-09T10:16:01.503Z,9.98
2023-10-09T10:18:54.356Z,10.70
2023-10-09T10:21:50.042Z,11.02
2023-10-09T10:25:01.080Z,11.23
2023-10-09T10:27:27.806Z,12.38
2023-10-09T10:30:13.224Z,12.75
2023-10-09T10:32:58.709Z,12.15
2023-10-09T10:35:45.971Z,11.90
2023-10-09T10:38:38.065Z,12.63
2023-10-09T10:41:19.077Z,13.63
2023-10-09T10:43:53.308Z,12.70
2023-10-09T10:46:31.153Z,10.57
2023-10-09T10:49:01.365Z,10.68
2023-10-09T10:51:39.156Z,10.52
2023-10-09T10:54:46.651Z,9.15
2023-10-09T10:57:29.777Z,7.70
2023-10-09T11:00:34.456Z,9.35
2023-10-09T11:03:14.853Z,8.45
2023-10-09T11:05:51.822Z,8.50
2023-10-09T11:08:23.671Z,9.13
2023-10-09T11:10:51.637Z,8.45
2023-10-09T11:13:38.429Z,8.68
2023-10-09T11:16:30.202Z,8.85
2023-10-09T11:18:58.510Z,9.93
2023-10-09T11:21:32.018Z,8.98
2023-10-09T11:23:59.451Z,9.45
2023-10-09T11:29:18.007Z,9.73
2023-10-09T11:32:19.271Z,11.40
2023-10-09T11:34:56.986Z,11.50
2023-10-09T11:37:30.753Z,11.00
2023-10-09T11:40:01.675Z,10.35
2023-10-09T11:42:47.773Z,10.38
2023-10-09T11:45:25.871Z,11.38
2023-10-09T11:48:01.059Z,10.05
2023-10-09T11:50:51.756Z,9.80
2023-10-09T11:53:25.273Z,10.07
2023-10-09T11:55:54.405Z,10.38
2023-10-09T11:58:25.228Z,10.52
2023-10-09T12:00:57.759Z,11.50
2023-10-09T12:03:31.589Z,12.38
2023-10-09T12:06:13.133Z,13.02
2023-10-09T12:08:43.252Z,12.70
2023-10-09T12:11:10.848Z,12.55
2023-10-09T12:13:39.728Z,12.48
2023-10-09T12:16:10.973Z,13.02
2023-10-09T12:18:40.353Z,12.80
2023-10-09T12:21:07.790Z,12.40
2023-10-09T12:23:37.170Z,13.68
2023-10-09T12:26:04.791Z,14.32
2023-10-09T12:28:34.163Z,14.10
2023-10-09T12:31:03.837Z,13.35
2023-10-09T12:33:31.183Z,12.52
2023-10-09T12:38:35.241Z,11.88
2023-10-09T12:41:26.366Z,10.98
2023-10-09T12:43:58.569Z,11.80
2023-10-09T12:46:26.753Z,11.93
2023-10-09T12:48:55.553Z,11.43
2023-10-09T12:51:26.764Z,11.82
2023-10-09T12:53:59.291Z,12.05
2023-10-09T12:56:38.801Z,12.80
2023-10-09T12:59:08.497Z,13.25
2023-10-09T13:01:43.703Z,13.25
2023-10-09T13:04:12.748Z,15.10
2023-10-09T13:06:44.979Z,14.52
2023-10-09T13:09:17.491Z,15.68
2023-10-09T13:11:44.608Z,16.98
2023-10-09T13:14:24.080Z,15.30
2023-10-09T13:16:54.287Z,13.93
2023-10-09T13:19:25.280Z,13.60
2023-10-09T13:21:51.988Z,13.70
2023-10-09T13:24:18.491Z,13.50
2023-10-09T13:26:52.589Z,13.87
2023-10-09T13:29:23.881Z,12.38
2023-10-09T13:31:53.707Z,12.25
2023-10-09T13:34:20.143Z,14.10
2023-10-09T13:36:54.055Z,14.85
2023-10-09T13:39:24.646Z,15.48
2023-10-09T13:41:59.328Z,15.13
2023-10-09T13:44:27.824Z,14.52
2023-10-09T13:46:58.167Z,15.43
2023-10-09T13:49:30.177Z,14.65
2023-10-09T13:52:00.852Z,15.48
2023-10-09T13:54:33.251Z,16.00
2023-10-09T13:57:06.770Z,15.70
2023-10-09T13:59:35.986Z,15.35
2023-10-09T14:02:10.363Z,14.93
2023-10-09T14:04:37.537Z,14.43
2023-10-09T14:07:07.117Z,13.68
2023-10-09T14:09:39.888Z,13.77
2023-10-09T14:12:08.247Z,12.48
2023-10-09T14:14:48.270Z,12.98
2023-10-09T14:17:24.677Z,12.27
2023-10-09T14:20:24.236Z,12.88
2023-10-09T14:22:53.760Z,12.07
2023-10-09T14:25:22.514Z,11.18
2023-10-09T14:27:49.335Z,26.73
2023-10-09T14:30:24.139Z,19.30
2023-10-09T14:32:57.054Z,13.45
2023-10-09T14:35:27.797Z,11.75
2023-10-09T14:37:57.249Z,12.25
2023-10-09T14:40:30.593Z,11.38
2023-10-09T14:42:59.036Z,10.98
2023-10-09T14:45:26.947Z,11.88
2023-10-09T14:47:55.015Z,13.15
2023-10-09T14:50:25.179Z,12.05
2023-10-09T14:52:52.050Z,12.82
2023-10-09T14:55:30.336Z,13.23
2023-10-09T14:57:57.262Z,12.82
2023-10-09T15:00:27.498Z,12.07
2023-10-09T15:02:54.161Z,12.48
2023-10-09T15:05:23.694Z,12.65
2023-10-09T15:07:51.379Z,12.63
2023-10-09T15:10:19.383Z,12.25
2023-10-09T15:12:48.142Z,13.18
2023-10-09T15:15:15.104Z,13.60
2023-10-09T15:17:46.838Z,14.70
2023-10-09T15:20:15.834Z,13.68
2023-10-09T15:22:46.109Z,13.55
2023-10-09T15:25:16.317Z,14.75
2023-10-09T15:27:43.933Z,14.13
2023-10-09T15:32:42.578Z,15.30
2023-10-09T15:35:11.111Z,16.73
2023-10-09T15:37:38.198Z,15.90
2023-10-09T15:40:06.734Z,16.17
2023-10-09T15:42:35.392Z,15.85
2023-10-09T15:45:03.388Z,16.70
2023-10-09T15:47:29.776Z,17.38
2023-10-09T15:49:56.251Z,16.42
2023-10-09T15:52:27.540Z,16.07
2023-10-09T15:54:55.364Z,14.68
2023-10-09T15:57:23.024Z,13.90
2023-10-09T15:59:51.277Z,12.85
2023-10-09T16:02:18.406Z,12.85
2023-10-09T16:04:46.099Z,12.10
2023-10-09T16:07:12.828Z,12.15
2023-10-09T16:09:40.383Z,11.38
2023-10-09T16:12:08.561Z,11.63
2023-10-09T16:14:35.870Z,10.02
2023-10-09T16:17:03.520Z,10.20
2023-10-09T16:19:34.174Z,9.85
2023-10-09T16:22:04.748Z,9.40
2023-10-09T16:24:39.455Z,9.35
2023-10-09T16:27:09.136Z,9.55
2023-10-09T16:29:36.190Z,9.40
2023-10-09T16:32:03.029Z,9.45
2023-10-09T16:34:30.541Z,8.77
2023-10-09T16:36:57.576Z,8.45
2023-10-09T16:39:24.095Z,7.80
2023-10-09T16:41:50.695Z,7.27
2023-10-09T16:44:20.810Z,8.07
2023-10-09T16:46:47.989Z,8.18
2023-10-09T16:49:14.750Z,6.50
2023-10-09T16:51:43.931Z,7.07
2023-10-09T16:54:16.588Z,6.47
2023-10-09T16:56:43.882Z,6.00
2023-10-09T16:59:16.126Z,6.38
2023-10-09T17:01:45.556Z,5.80
2023-10-09T17:04:13.387Z,6.22
2023-10-09T17:06:40.221Z,9.60
2023-10-09T17:09:12.158Z,9.37
2023-10-09T17:11:42.294Z,9.07
2023-10-09T17:14:14.015Z,10.00
2023-10-09T17:16:46.359Z,9.27
2023-10-09T17:19:15.260Z,10.07
2023-10-09T17:21:42.093Z,9.43
2023-10-09T17:24:12.018Z,9.40
2023-10-09T17:26:42.824Z,12.13
2023-10-09T17:29:11.472Z,11.73
2023-10-09T17:31:40.582Z,11.45
2023-10-09T17:34:08.772Z,10.05
2023-10-09T17:36:36.431Z,10.75
2023-10-09T17:39:06.018Z,10.15
2023-10-09T17:41:35.897Z,10.77
2023-10-09T17:44:03.420Z,10.50
2023-10-09T17:49:00.314Z,8.98
2023-10-09T17:51:27.776Z,9.98
2023-10-09T17:53:54.288Z,10.95
2023-10-09T17:56:20.863Z,10.68
2023-10-09T17:58:53.244Z,9.90
2023-10-09T18:01:20.215Z,9.93
2023-10-09T18:03:47.038Z,11.30
2023-10-09T18:06:17.884Z,10.65
2023-10-09T18:08:44.848Z,10.68
2023-10-09T18:11:15.291Z,11.20
2023-10-09T18:13:42.100Z,10.55
2023-10-09T18:16:12.915Z,11.27
2023-10-09T18:18:41.070Z,10.50
2023-10-09T18:21:09.175Z,11.10
2023-10-09T18:23:45.921Z,10.98
2023-10-09T18:26:17.827Z,10.45
2023-10-09T18:28:48.975Z,10.52
2023-10-09T18:31:19.604Z,11.05
2023-10-09T18:33:47.584Z,11.10
2023-10-09T18:36:14.126Z,11.63
2023-10-09T18:38:41.937Z,13.20
2023-10-09T18:41:08.988Z,12.10
2023-10-09T18:43:36.324Z,12.70
2023-10-09T18:46:11.822Z,13.10
2023-10-09T18:48:38.718Z,11.70
2023-10-09T18:51:15.052Z,12.90
2023-10-09T18:53:41.559Z,12.90
2023-10-09T18:56:15.910Z,14.03
2023-10-09T18:58:43.191Z,13.75
2023-10-09T19:01:15.714Z,14.15
2023-10-09T19:03:43.520Z,13.43
2023-10-09T19:06:11.218Z,12.73
2023-10-09T19:08:38.103Z,13.55
2023-10-09T19:11:11.454Z,13.63
2023-10-09T19:13:39.757Z,13.88
2023-10-09T19:16:08.045Z,12.48
2023-10-09T19:21:11.441Z,15.00
2023-10-09T19:23:40.715Z,14.50
2023-10-09T19:26:08.145Z,15.57
2023-10-09T19:31:11.853Z,19.85
2023-10-09T19:36:12.683Z,20.90
2023-10-09T19:38:40.017Z,22.70
2023-10-09T19:41:07.499Z,22.42
2023-10-09T19:46:06.197Z,19.17
2023-10-09T19:48:34.322Z,20.80
2023-10-09T19:51:05.095Z,21.33
2023-10-09T19:53:32.090Z,24.13
2023-10-09T19:56:00.323Z,27.17
2023-10-09T19:58:27.444Z,29.42
2023-10-09T20:00:54.457Z,29.05
2023-10-09T20:03:21.700Z,27.20
2023-10-09T20:08:18.295Z,27.25
2023-10-09T20:10:44.937Z,27.80
2023-10-09T20:13:12.635Z,30.33
2023-10-09T20:15:46.888Z,30.58
2023-10-09T20:18:13.470Z,29.92
2023-10-09T20:20:45.892Z,31.07
2023-10-09T20:23:17.088Z,30.83
2023-10-09T20:25:44.023Z,33.17
2023-10-09T20:28:11.716Z,30.83
2023-10-09T20:30:38.879Z,28.27
2023-10-09T20:33:06.000Z,25.83
2023-10-09T20:35:33.278Z,24.48
2023-10-09T20:38:02.828Z,25.15
2023-10-09T20:40:30.038Z,27.65
2023-10-09T20:42:59.339Z,29.23
2023-10-09T20:45:25.883Z,29.52
2023-10-09T20:47:59.882Z,32.88
2023-10-09T20:50:27.057Z,31.50
2023-10-09T20:52:54.438Z,31.52
2023-10-09T20:55:24.317Z,30.95
2023-10-09T20:57:57.815Z,27.58
2023-10-09T21:00:26.509Z,28.80
2023-10-09T21:02:55.344Z,28.85
2023-10-09T21:05:26.328Z,30.25
2023-10-09T21:07:54.320Z,29.35
2023-10-09T21:10:21.868Z,30.23
2023-10-09T21:15:27.692Z,32.08
2023-10-09T21:17:54.634Z,31.08
2023-10-09T21:20:21.401Z,30.85
2023-10-09T21:22:51.527Z,33.80
2023-10-09T21:25:21.391Z,31.25
2023-10-09T21:27:48.980Z,31.02
2023-10-09T21:32:46.477Z,30.00
2023-10-09T21:35:19.779Z,29.95
2023-10-09T21:37:59.357Z,27.58
2023-10-09T21:40:31.430Z,27.25
2023-10-09T21:42:59.541Z,27.58
2023-10-09T21:45:28.161Z,27.40
2023-10-09T21:47:58.234Z,26.63
2023-10-09T21:50:26.339Z,26.35
2023-10-09T21:52:58.421Z,26.10
2023-10-09T21:55:26.389Z,27.33
2023-10-09T21:57:54.053Z,25.25
2023-10-09T22:00:30.844Z,25.48
2023-10-09T22:02:57.497Z,23.73
2023-10-09T22:05:24.141Z,22.23
2023-10-09T22:07:52.858Z,21.58
2023-10-09T22:10:19.454Z,22.17
2023-10-09T22:12:48.056Z,23.63
2023-10-09T22:15:19.443Z,24.40
2023-10-09T22:17:46.453Z,24.35
2023-10-09T22:20:19.235Z,25.02
2023-10-09T22:22:50.396Z,23.08
2023-10-09T22:25:17.687Z,19.95
2023-10-09T22:27:52.505Z,20.10
2023-10-09T22:30:30.386Z,19.85
2023-10-09T22:33:03.884Z,17.67
2023-10-09T22:35:35.010Z,16.90
2023-10-09T22:38:13.243Z,16.17
2023-10-09T22:40:40.640Z,15.23
2023-10-09T22:45:40.388Z,12.60
2023-10-09T22:48:07.654Z,10.95
2023-10-09T22:50:37.175Z,9.82
2023-10-09T22:53:23.937Z,9.48
2023-10-09T22:55:55.233Z,7.80
2023-10-09T22:58:29.571Z,7.53
2023-10-09T23:01:01.821Z,8.82
2023-10-09T23:03:29.302Z,8.98
2023-10-09T23:06:10.081Z,8.20
2023-10-09T23:08:37.379Z,8.13
2023-10-09T23:11:09.746Z,8.82
2023-10-09T23:13:40.677Z,9.30
2023-10-09T23:16:07.925Z,10.60
2023-10-09T23:18:56.518Z,11.75
2023-10-09T23:21:28.978Z,13.27
2023-10-09T23:24:09.681Z,13.63
2023-10-09T23:26:53.083Z,13.30
2023-10-09T23:29:30.948Z,12.32
2023-10-09T23:32:20.372Z,13.73
2023-10-09T23:35:08.061Z,12.90
2023-10-09T23:37:34.947Z,12.95
2023-10-09T23:40:09.115Z,13.75
2023-10-09T23:42:38.719Z,13.18
2023-10-09T23:45:07.584Z,12.55
2023-10-09T23:47:34.867Z,12.70
2023-10-09T23:52:33.470Z,12.52
2023-10-09T23:55:03.251Z,15.35
2023-10-09T23:57:42.778Z,15.07
